Grandin Road, Virginia
Current Conditions -  °F | °C
As of 10:54 PM on Wednesday 22 Oct 2014 (Local Time) from KROA Reporting Station
Few Clouds Few Clouds  
Wind Chill: 52°   Ceiling: Unl
Heat Index: 52°   Visibility: 10mi
Dew Point: 38°   Wind: 15mph
Humidity: 59%   Direction: 300°WNW
Pressure: 30.11"   Gusts: 24mph
Location:  37.2556°N, 79.9796°W
Report Text: KROA 230254Z 30013G21KT 10SM FEW037 11/03 A3011 RMK AO2 SLP195 T01110033 51010
Loading
Personal Weather Stations






























Interactive Weather Map
Tropical Storm Tracking
New forecast layout! Learn more

10-Day Weather Forecast

Advertisements
Track Severe Weather on mobile